Detalii statie SOMALEX GHIMPATI [0000198E]

Toti senzorii

Date Temperatura solului [C]Precipitatii [mm]Voltaj baterie [mV]Leaf Wetness [Min]HC Air temperature [C]HC Relative humidity [%]Punctul de roua [C]
medieminmaxsumaultimatimpmedieminmaxmediemediemin
2020-06-02 08:00:00 15.6 15.6 15.6 0 6826 13.08 13.08 13.09 0 0 0
2020-06-02 08:10:00 15.6 15.5 15.8 0 6786 13.11 13.11 13.12 0 0 0
2020-06-02 08:20:00 15.7 15.7 15.7 0 6806 13.24 13.19 13.3 0 0 0
2020-06-02 08:30:00 15.7 15.6 15.8 0 6806 13.28 13.26 13.31 0 0 0
2020-06-02 08:40:00 15.7 15.6 15.8 0 6826 13.38 13.28 13.48 0 0 0
2020-06-02 08:50:00 15.6 15.6 15.6 0 6826 13.67 13.65 13.69 0 0 0
2020-06-02 09:00:00 15.6 15.6 15.7 0 6854 14.1 14.01 14.2 0 0 0
2020-06-02 09:10:00 15.6 15.6 15.6 0 6806 14.26 14.26 14.26 0 0 0
2020-06-02 09:20:00 15.6 15.6 15.7 0 6834 14.19 14.12 14.27 0 0 0
2020-06-02 09:30:00 15.6 15.6 15.6 0 6844 14.17 14.12 14.23 0 0 0
2020-06-02 09:40:00 15.6 15.6 15.6 0 6844 13.76 13.54 13.99 0 0 0
2020-06-02 09:50:00 15.6 15.6 15.7 0 6844 13.55 13.54 13.56 0 0 0
2020-06-02 10:00:00 15.6 15.6 15.6 0 6844 13.32 13.27 13.37 0 0 0
2020-06-02 10:10:00 15.8 15.8 15.8 0 6806 13.59 13.44 13.74 0 0 0
2020-06-02 10:20:00 15.8 15.8 15.8 0 6834 13.82 13.73 13.91 0 0 0
2020-06-02 10:30:00 15.6 15.6 15.7 0 6844 14.16 14.12 14.2 0 0 0
2020-06-02 10:40:00 15.8 15.8 15.8 0 6864 14.24 14.16 14.33 0 0 0
2020-06-02 10:50:00 15.8 15.8 15.8 0 6854 14.1 13.98 14.22 0 0 0
2020-06-02 11:00:00 15.7 15.6 15.8 0 6874 13.84 13.79 13.9 0 0 0
2020-06-02 11:10:00 15.6 15.6 15.7 0 6826 14.2 14.16 14.25 0 0 0
2020-06-02 11:20:00 15.6 15.6 15.7 0 6854 14.34 14.3 14.39 0 0 0
2020-06-02 11:30:00 15.9 15.8 16 0 6864 14.48 14.46 14.51 0 0 0
2020-06-02 11:40:00 15.6 15.5 15.8 0 6884 14.54 14.5 14.58 0 0 0
2020-06-02 11:50:00 15.7 15.7 15.8 0 6884 14.2 13.99 14.42 0 0 0
2020-06-02 12:00:00 15.8 15.8 15.8 0 6884 13.8 13.74 13.87 0 0 0
2020-06-02 12:10:00 15.7 15.7 15.8 0 6826 13.54 13.49 13.6 0 0 0
2020-06-02 12:20:00 15.7 15.7 15.8 0 6844 13.25 13.13 13.38 0 0 0
2020-06-02 12:30:00 15.7 15.7 15.8 0 6844 12.44 12.25 12.64 0 0 0
2020-06-02 12:40:00 15.7 15.7 15.7 0 6854 11.84 11.73 11.95 0 0 0
2020-06-02 12:50:00 15.8 15.8 15.8 0.4 6844 11.36 11.26 11.47 0 0 0
2020-06-02 13:00:00 15.7 15.7 15.8 0.4 6854 10.96 10.9 11.02 0 0 0
2020-06-02 13:10:00 15.6 15.6 15.7 0.4 6796 10.88 10.84 10.93 0 0 0
2020-06-02 13:20:00 15.6 15.6 15.6 0.4 6826 10.82 10.81 10.84 0 0 0
2020-06-02 13:30:00 15.7 15.6 15.8 0 6854 11.04 11.02 11.07 0 0 0
2020-06-02 13:40:00 15.6 15.6 15.7 0.2 6864 11.01 11 11.03 0 0 0
2020-06-02 13:50:00 15.6 15.6 15.6 0 6894 10.96 10.93 11 0 0 0
2020-06-02 14:00:00 15.6 15.6 15.6 0 6904 10.92 10.89 10.95 9.93 -5.9 0
2020-06-02 14:10:00 15.6 15.6 15.7 0 6864 11.3 11.19 11.42 62.89 4 1.4
2020-06-02 14:20:00 15.6 15.6 15.6 0 6894 10.96 10.89 11.04 90.27 9.1 7.5
2020-06-02 14:30:00 15.7 15.6 15.8 0 6894 11.18 11.17 11.19 100 11.1 11.1
2020-06-02 14:40:00 15.6 15.6 15.6 0 6904 11 10.92 11.08 100 10.9 10.9
2020-06-02 14:50:00 15.6 15.6 15.6 0 6914 11.37 11.21 11.53 100 11.3 11.2
2020-06-02 15:00:00 15.7 15.7 15.7 0 6932 11.46 11.38 11.54 100 11.4 11.3
2020-06-02 15:10:00 15.6 15.6 15.7 0 7010 12.06 11.9 12.23 100 12 11.9
2020-06-02 15:20:00 15.8 15.8 15.8 0 7166 13 12.72 13.29 100 12.9 12.7
2020-06-02 15:30:00 15.7 15.7 15.7 0 7158 12.5 12.09 12.91 100 12.4 12
2020-06-02 15:40:00 15.8 15.7 15.9 0 7070 12.43 12.33 12.54 100 12.4 12.3
2020-06-02 15:50:00 15.7 15.7 15.8 0 7050 12.42 12.22 12.62 100 12.4 12.2